Time;durP1;ratioP1;P1;durP2;ratioP2;P2;SDS_P1;SDS_P2;PMS_P1;PMS_P2;Temp;Humidity;BMP_temperature;BMP_pressure;BME280_temperature;BME280_humidity;BME280_pressure;Samples;Min_cycle;Max_cycle;Signal;HPM_P1;HPM_P2
2023/07/05 05:16:19;;;;;;;;;;;;;;;;;;6273496;22;19964;-79
2023/07/05 05:19:21;;;;;;;;;;;;;;;;;;6277015;28;19936;-80
2023/07/05 05:22:23;;;;;;;;;;;;;;;;;;6271677;28;20213;-80
2023/07/05 05:25:24;;;;;;;;;;;;;;;;;;6273718;28;19991;-79
2023/07/05 05:28:25;;;;;;;;;;;;;;;;;;6271075;28;19929;-79
2023/07/05 05:31:28;;;;;;;;;;;;;;;;;;6272320;28;19933;-79
2023/07/05 05:34:30;;;;;;;;;;;;;;;;;;6271983;28;19967;-80
2023/07/05 05:37:31;;;;;;;;;;;;;;;;;;6273161;28;19921;-80
2023/07/05 05:40:33;;;;;;;;;;;;;;;;;;6270953;28;19988;-79
2023/07/05 05:43:35;;;;;;;;;;;;;;;;;;6270866;28;19921;-79
2023/07/05 05:46:38;;;;;;;;;;;;;;;;;;6268540;28;19936;-79
2023/07/05 05:49:40;;;;;;;;;;;;;;;;;;6268065;28;21620;-79
2023/07/05 05:52:41;;;;;;;;;;;;;;;;;;6267649;28;20213;-80
2023/07/05 05:55:43;;;;;;;;;;;;;;;;;;6270580;28;20224;-78
2023/07/05 05:58:44;;;;;;;;;;;;;;;;;;6269282;28;19968;-84
2023/07/05 06:01:47;;;;;;;;;;;;;;;;;;6254474;28;19921;-83
2023/07/05 06:04:49;;;;;;;;;;;;;;;;;;6246847;28;19968;-82
2023/07/05 06:07:50;;;;;;;;;;;;;;;;;;6243920;28;19937;-81
2023/07/05 06:10:55;;;;;;;;;;;;;;;;;;6245123;28;19929;-82
2023/07/05 06:13:57;;;;;;;;;;;;;;;;;;6260745;28;19972;-82
2023/07/05 06:17:00;;;;;;;;;;;;;;;;;;6266716;28;19929;-83
2023/07/05 06:21:38;;;;;;;;;;;;;;;;;;6315620;27;19959;-76
2023/07/05 06:24:42;;;;;;;;;;;;;;;;;;6282544;28;19936;-76
2023/07/05 06:27:43;;;;;;;;;;;;;;;;;;6285364;28;19935;-77
2023/07/05 06:30:45;;;;;;;;;;;;;;;;;;6309971;28;19931;-76
2023/07/05 06:33:46;;;;;;;;;;;;;;;;;;6310255;28;19970;-76
2023/07/05 06:36:49;;;;;;;;;;;;;;;;;;6311506;28;19928;-76
2023/07/05 06:39:50;;;;;;;;;;;;;;;;;;6308436;28;19943;-76
2023/07/05 06:42:52;;;;;;;;;;;;;;;;;;6309481;28;19928;-74
2023/07/05 06:45:54;;;;;;;;;;;;;;;;;;6308694;28;19932;-76
2023/07/05 06:48:55;;;;;;;;;;;;;;;;;;6304865;28;19928;-75
2023/07/05 06:51:58;;;;;;;;;;;;;;;;;;6308636;28;19920;-76
2023/07/05 06:54:59;;;;;;;;;;;;;;;;;;6309503;28;19974;-76
2023/07/05 06:58:02;;;;;;;;;;;;;;;;;;6290948;28;19929;-76
2023/07/05 07:01:04;;;;;;;;;;;;;;;;;;6282045;28;19925;-76
2023/07/05 07:04:06;;;;;;;;;;;;;;;;;;6281436;28;19925;-76
2023/07/05 07:07:10;;;;;;;;;;;;;;;;;;6280607;28;19943;-76
2023/07/05 07:10:12;;;;;;;;;;;;;;;;;;6282892;28;20316;-76
2023/07/05 07:13:13;;;;;;;;;;;;;;;;;;6284063;28;19928;-73
2023/07/05 07:16:15;;;;;;;;;;;;;;;;;;6282777;28;19929;-72
2023/07/05 07:19:17;;;;;;;;;;;;;;;;;;6282046;28;19929;-76
2023/07/05 07:22:20;;;;;;;;;;;;;;;;;;6282714;28;20105;-75
2023/07/05 07:25:22;;;;;;;;;;;;;;;;;;6282170;28;20255;-75
2023/07/05 07:28:23;;;;;;;;;;;;;;;;;;6278889;28;19921;-73
2023/07/05 07:31:25;;;;;;;;;;;;;;;;;;6273451;28;20196;-73
2023/07/05 07:34:27;;;;;;;;;;;;;;;;;;6263575;28;20148;-76
2023/07/05 07:37:31;;;;;;;;;;;;;;;;;;6265370;28;19925;-75
2023/07/05 07:40:36;;;;;;;;;;;;;;;;;;6266125;28;20132;-75
2023/07/05 07:43:37;;;;;;;;;;;;;;;;;;6265296;28;19925;-75
2023/07/05 07:46:39;;;;;;;;;;;;;;;;;;6264095;28;20205;-73
2023/07/05 07:49:41;;;;;;;;;;;;;;;;;;6266273;28;19963;-76
2023/07/05 07:52:43;;;;;;;;;;;;;;;;;;6264950;28;19933;-75
2023/07/05 07:55:45;;;;;;;;;;;;;;;;;;6262602;28;19929;-75
2023/07/05 07:58:48;;;;;;;;;;;;;;;;;;6265165;28;19929;-75
2023/07/05 08:01:49;;;;;;;;;;;;;;;;;;6264737;28;19955;-75
2023/07/05 08:04:51;;;;;;;;;;;;;;;;;;6265530;28;20212;-74
2023/07/05 08:07:54;;;;;;;;;;;;;;;;;;6264558;28;19970;-74
2023/07/05 08:10:55;;;;;;;;;;;;;;;;;;6261987;28;19983;-76
2023/07/05 08:13:57;;;;;;;;;;;;;;;;;;6261949;28;19959;-74
2023/07/05 08:16:58;;;;;;;;;;;;;;;;;;6264698;28;19952;-75
2023/07/05 08:20:00;;;;;;;;;;;;;;;;;;6263213;28;20197;-73
2023/07/05 08:23:02;;;;;;;;;;;;;;;;;;6265101;28;20200;-73
2023/07/05 08:26:04;;;;;;;;;;;;;;;;;;6269445;28;19933;-77
2023/07/05 08:29:05;;;;;;;;;;;;;;;;;;6272750;28;19921;-76
2023/07/05 08:32:07;;;;;;;;;;;;;;;;;;6269806;28;19928;-74
2023/07/05 08:35:09;;;;;;;;;;;;;;;;;;6269512;28;19929;-73
2023/07/05 08:38:11;;;;;;;;;;;;;;;;;;6286295;28;19935;-73
2023/07/05 08:41:16;;;;;;;;;;;;;;;;;;6296841;28;19929;-75
2023/07/05 08:44:19;;;;;;;;;;;;;;;;;;6289787;28;19960;-75
2023/07/05 08:47:23;;;;;;;;;;;;;;;;;;6295144;28;19974;-72
2023/07/05 08:50:26;;;;;;;;;;;;;;;;;;6294492;28;19928;-75
2023/07/05 08:53:29;;;;;;;;;;;;;;;;;;6247074;28;202576;-74
2023/07/05 08:56:32;;;;;;;;;;;;;;;;;;6289634;28;19928;-75
2023/07/05 08:59:35;;;;;;;;;;;;;;;;;;6290976;28;19940;-75
2023/07/05 09:02:37;;;;;;;;;;;;;;;;;;6289006;28;19936;-75
2023/07/05 09:05:40;;;;;;;;;;;;;;;;;;6289709;28;19939;-75
2023/07/05 09:08:47;;;;;;;;;;;;;;;;;;6289186;28;20181;-76
2023/07/05 09:11:53;;;;;;;;;;;;;;;;;;6288951;28;19943;-76
2023/07/05 09:14:57;;;;;;;;;;;;;;;;;;6287586;28;19928;-75
2023/07/05 09:17:59;;;;;;;;;;;;;;;;;;6289883;28;19928;-76
2023/07/05 09:21:04;;;;;;;;;;;;;;;;;;6288651;28;19928;-75
2023/07/05 09:24:11;;;;;;;;;;;;;;;;;;6290380;28;19924;-76
2023/07/05 09:27:19;;;;;;;;;;;;;;;;;;6290733;28;19928;-76
2023/07/05 09:30:24;;;;;;;;;;;;;;;;;;6289390;28;19928;-75
2023/07/05 09:33:28;;;;;;;;;;;;;;;;;;6289327;28;19924;-76
2023/07/05 09:36:29;;;;;;;;;;;;;;;;;;6289511;28;19932;-76
2023/07/05 09:39:33;;;;;;;;;;;;;;;;;;6285400;28;20189;-75
2023/07/05 09:42:36;;;;;;;;;;;;;;;;;;6285975;28;19928;-75
2023/07/05 09:45:38;;;;;;;;;;;;;;;;;;6290169;28;19932;-75
2023/07/05 09:48:42;;;;;;;;;;;;;;;;;;6287182;28;19928;-75
2023/07/05 09:51:44;;;;;;;;;;;;;;;;;;6289315;28;19950;-77
2023/07/05 09:54:47;;;;;;;;;;;;;;;;;;6287029;28;19939;-76
2023/07/05 09:57:50;;;;;;;;;;;;;;;;;;6286666;28;20159;-76
2023/07/05 10:00:51;;;;;;;;;;;;;;;;;;6287610;28;20332;-76
2023/07/05 10:03:54;;;;;;;;;;;;;;;;;;6288301;28;19924;-76
2023/07/05 10:06:55;;;;;;;;;;;;;;;;;;6287342;28;19933;-77
2023/07/05 10:10:01;;;;;;;;;;;;;;;;;;6288476;28;19933;-76
2023/07/05 10:13:03;;;;;;;;;;;;;;;;;;6287927;28;19952;-76
2023/07/05 10:16:05;;;;;;;;;;;;;;;;;;6286134;28;20276;-76
2023/07/05 10:19:09;;;;;;;;;;;;;;;;;;6284620;28;19939;-77
2023/07/05 10:22:13;;;;;;;;;;;;;;;;;;6284277;28;19936;-75
2023/07/05 10:25:17;;;;;;;;;;;;;;;;;;6292681;28;19928;-76
2023/07/05 10:28:20;;;;;;;;;;;;;;;;;;6286659;28;19929;-75
2023/07/05 10:31:28;;;;;;;;;;;;;;;;;;6291357;28;19971;-75
2023/07/05 10:34:29;;;;;;;;;;;;;;;;;;6289594;28;19928;-76
2023/07/05 10:37:31;;;;;;;;;;;;;;;;;;6290333;28;20144;-76
2023/07/05 10:40:34;;;;;;;;;;;;;;;;;;6291456;28;19980;-75
2023/07/05 10:43:36;;;;;;;;;;;;;;;;;;6292684;28;19932;-76
2023/07/05 10:46:37;;;;;;;;;;;;;;;;;;6288988;28;19931;-77
2023/07/05 10:49:39;;;;;;;;;;;;;;;;;;6289536;28;20220;-76
2023/07/05 10:52:42;;;;;;;;;;;;;;;;;;6288926;28;20148;-75
2023/07/05 10:55:46;;;;;;;;;;;;;;;;;;6289899;28;20030;-76
2023/07/05 10:58:49;;;;;;;;;;;;;;;;;;6288684;28;19929;-75
2023/07/05 11:01:51;;;;;;;;;;;;;;;;;;6286360;28;19943;-76
2023/07/05 11:04:53;;;;;;;;;;;;;;;;;;6286740;28;20247;-76
2023/07/05 11:07:55;;;;;;;;;;;;;;;;;;6289956;28;19944;-76
2023/07/05 11:11:00;;;;;;;;;;;;;;;;;;6293198;28;19920;-76
2023/07/05 11:14:03;;;;;;;;;;;;;;;;;;6288075;28;19921;-75
2023/07/05 11:17:04;;;;;;;;;;;;;;;;;;6289683;28;19975;-75
2023/07/05 11:20:33;;;;;;;;;;;;;;;;;;6290192;28;19992;-75
2023/07/05 11:23:54;;;;;;;;;;;;;;;;;;6292549;28;19928;-73
2023/07/05 11:26:57;;;;;;;;;;;;;;;;;;6292027;28;19928;-75
2023/07/05 11:29:58;;;;;;;;;;;;;;;;;;6289266;28;19936;-74
2023/07/05 11:33:16;;;;;;;;;;;;;;;;;;6292448;28;19951;-75
2023/07/05 11:36:29;;;;;;;;;;;;;;;;;;6287594;28;19921;-74
2023/07/05 11:39:33;;;;;;;;;;;;;;;;;;6288326;28;20050;-74
2023/07/05 11:42:39;;;;;;;;;;;;;;;;;;6290363;28;20058;-74
2023/07/05 11:45:45;;;;;;;;;;;;;;;;;;6290708;28;19936;-74
2023/07/05 11:48:47;;;;;;;;;;;;;;;;;;6290913;28;19936;-73
2023/07/05 11:51:48;;;;;;;;;;;;;;;;;;6294781;28;19928;-74
2023/07/05 11:54:52;;;;;;;;;;;;;;;;;;6293054;28;19928;-74
2023/07/05 11:57:56;;;;;;;;;;;;;;;;;;6291425;28;19929;-74
2023/07/05 12:00:58;;;;;;;;;;;;;;;;;;6292682;28;19932;-73
2023/07/05 12:04:01;;;;;;;;;;;;;;;;;;6289432;28;19987;-73
2023/07/05 12:07:03;;;;;;;;;;;;;;;;;;6293152;28;19967;-75
2023/07/05 12:10:05;;;;;;;;;;;;;;;;;;6292993;28;19928;-76
2023/07/05 12:13:19;;;;;;;;;;;;;;;;;;6291628;28;19929;-74
2023/07/05 12:16:21;;;;;;;;;;;;;;;;;;6287138;28;19929;-73
2023/07/05 12:19:23;;;;;;;;;;;;;;;;;;6291460;28;19928;-75
2023/07/05 12:22:26;;;;;;;;;;;;;;;;;;6290548;28;20082;-76
2023/07/05 12:25:27;;;;;;;;;;;;;;;;;;6287398;28;20221;-78
2023/07/05 12:28:31;;;;;;;;;;;;;;;;;;6289122;28;19928;-76
2023/07/05 12:31:32;;;;;;;;;;;;;;;;;;6287784;28;19920;-76
2023/07/05 12:34:34;;;;;;;;;;;;;;;;;;6287721;28;19929;-76
2023/07/05 12:37:35;;;;;;;;;;;;;;;;;;6289904;28;19935;-77
2023/07/05 12:40:40;;;;;;;;;;;;;;;;;;6288486;28;20004;-75
2023/07/05 12:43:42;;;;;;;;;;;;;;;;;;6288558;28;19924;-74
2023/07/05 12:46:45;;;;;;;;;;;;;;;;;;6286190;28;20143;-75
2023/07/05 12:49:46;;;;;;;;;;;;;;;;;;6289444;28;19943;-74
2023/07/05 12:53:01;;;;;;;;;;;;;;;;;;6289179;28;19933;-77
2023/07/05 12:56:04;;;;;;;;;;;;;;;;;;6286401;28;19958;-77
2023/07/05 12:59:07;;;;;;;;;;;;;;;;;;6289258;28;19928;-77
2023/07/05 13:02:11;;;;;;;;;;;;;;;;;;6287323;28;19920;-77
2023/07/05 13:05:14;;;;;;;;;;;;;;;;;;6289746;28;19924;-75
2023/07/05 13:08:15;;;;;;;;;;;;;;;;;;6289748;28;19928;-77
2023/07/05 13:11:17;;;;;;;;;;;;;;;;;;6289684;28;20098;-73
2023/07/05 13:14:24;;;;;;;;;;;;;;;;;;6289097;28;19928;-75
2023/07/05 13:17:28;;;;;;;;;;;;;;;;;;6289269;28;19939;-76
2023/07/05 13:20:31;;;;;;;;;;;;;;;;;;6289762;28;19927;-76
2023/07/05 13:23:32;;;;;;;;;;;;;;;;;;6287964;28;19929;-77
2023/07/05 13:26:36;;;;;;;;;;;;;;;;;;6290121;28;19927;-77
2023/07/05 13:29:40;;;;;;;;;;;;;;;;;;6286124;28;19927;-76
2023/07/05 13:32:42;;;;;;;;;;;;;;;;;;6287285;28;20272;-79
2023/07/05 13:35:43;;;;;;;;;;;;;;;;;;6288837;28;19929;-79
2023/07/05 13:38:45;;;;;;;;;;;;;;;;;;6286649;28;19942;-79
2023/07/05 13:41:47;;;;;;;;;;;;;;;;;;6289798;28;19920;-79
2023/07/05 13:44:50;;;;;;;;;;;;;;;;;;6285641;28;20112;-79
2023/07/05 13:47:51;;;;;;;;;;;;;;;;;;6287663;28;19920;-80
2023/07/05 13:50:53;;;;;;;;;;;;;;;;;;6289571;28;19920;-84
2023/07/05 13:53:54;;;;;;;;;;;;;;;;;;6289204;28;19939;-85
2023/07/05 13:56:56;;;;;;;;;;;;;;;;;;6288813;28;20209;-83
2023/07/05 13:59:59;;;;;;;;;;;;;;;;;;6288562;28;20090;-83
2023/07/05 14:03:01;;;;;;;;;;;;;;;;;;6288815;28;20036;-82
2023/07/05 14:06:02;;;;;;;;;;;;;;;;;;6286037;28;20187;-82
2023/07/05 14:09:04;;;;;;;;;;;;;;;;;;6285923;28;19929;-81
2023/07/05 14:12:06;;;;;;;;;;;;;;;;;;6286915;28;20243;-83
2023/07/05 14:15:16;;;;;;;;;;;;;;;;;;6286891;28;19928;-81
2023/07/05 14:18:18;;;;;;;;;;;;;;;;;;6291101;28;19991;-81
2023/07/05 14:21:22;;;;;;;;;;;;;;;;;;6288334;28;19928;-81
2023/07/05 14:24:24;;;;;;;;;;;;;;;;;;6289897;28;19928;-82
2023/07/05 14:27:26;;;;;;;;;;;;;;;;;;6288642;28;19951;-81
2023/07/05 14:30:29;;;;;;;;;;;;;;;;;;6287501;28;19997;-80
2023/07/05 14:33:30;;;;;;;;;;;;;;;;;;6286940;28;19926;-80
2023/07/05 14:36:32;;;;;;;;;;;;;;;;;;6289168;28;20231;-79
2023/07/05 14:39:33;;;;;;;;;;;;;;;;;;6286630;28;19936;-76
2023/07/05 14:42:35;;;;;;;;;;;;;;;;;;6290152;28;19966;-77
2023/07/05 14:45:38;;;;;;;;;;;;;;;;;;6291687;28;19952;-76
2023/07/05 14:48:39;;;;;;;;;;;;;;;;;;6290031;28;19927;-75
2023/07/05 14:51:50;;;;;;;;;;;;;;;;;;6293849;28;19988;-76
2023/07/05 14:54:52;;;;;;;;;;;;;;;;;;6291600;28;19929;-75
2023/07/05 14:57:54;;;;;;;;;;;;;;;;;;6293239;28;19928;-77
2023/07/05 15:00:57;;;;;;;;;;;;;;;;;;6290725;28;19928;-76
2023/07/05 15:03:58;;;;;;;;;;;;;;;;;;6292758;28;20243;-77
2023/07/05 15:07:00;;;;;;;;;;;;;;;;;;6292027;28;20116;-76
2023/07/05 15:10:12;;;;;;;;;;;;;;;;;;6281598;28;19943;-76
2023/07/05 15:13:13;;;;;;;;;;;;;;;;;;6307786;28;19935;-77
2023/07/05 15:16:17;;;;;;;;;;;;;;;;;;6293338;28;19932;-77
2023/07/05 15:19:20;;;;;;;;;;;;;;;;;;6290456;28;19921;-76
2023/07/05 15:22:22;;;;;;;;;;;;;;;;;;6291545;28;20197;-77
2023/07/05 15:25:23;;;;;;;;;;;;;;;;;;6293448;28;19928;-77
2023/07/05 15:28:25;;;;;;;;;;;;;;;;;;6291039;28;20285;-77
2023/07/05 15:31:29;;;;;;;;;;;;;;;;;;6283365;28;19928;-76
2023/07/05 15:34:31;;;;;;;;;;;;;;;;;;6289112;28;19929;-77
2023/07/05 15:37:32;;;;;;;;;;;;;;;;;;6292456;28;19928;-77
2023/07/05 15:40:35;;;;;;;;;;;;;;;;;;6290901;28;19944;-77
2023/07/05 15:43:36;;;;;;;;;;;;;;;;;;6291697;28;19967;-76
2023/07/05 15:46:39;;;;;;;;;;;;;;;;;;6289849;28;19970;-75
2023/07/05 15:49:41;;;;;;;;;;;;;;;;;;6288953;28;19929;-77
2023/07/05 15:52:42;;;;;;;;;;;;;;;;;;6291209;28;19933;-77
2023/07/05 15:55:44;;;;;;;;;;;;;;;;;;6290751;28;19928;-77
2023/07/05 15:58:50;;;;;;;;;;;;;;;;;;6290427;28;19943;-77
2023/07/05 16:01:55;;;;;;;;;;;;;;;;;;6290504;28;20356;-77
2023/07/05 16:04:58;;;;;;;;;;;;;;;;;;6291404;28;19924;-77
2023/07/05 16:08:00;;;;;;;;;;;;;;;;;;6286709;28;20271;-76
2023/07/05 16:11:04;;;;;;;;;;;;;;;;;;6289636;28;19929;-77
2023/07/05 16:14:05;;;;;;;;;;;;;;;;;;6288562;28;19920;-76
2023/07/05 16:17:10;;;;;;;;;;;;;;;;;;6290594;28;20212;-77
2023/07/05 16:20:12;;;;;;;;;;;;;;;;;;6290284;28;20200;-77
2023/07/05 16:23:23;;;;;;;;;;;;;;;;;;6291023;28;19929;-76
2023/07/05 16:26:29;;;;;;;;;;;;;;;;;;6293735;28;19936;-76
2023/07/05 16:29:34;;;;;;;;;;;;;;;;;;6287748;28;20923;-77
2023/07/05 16:32:42;;;;;;;;;;;;;;;;;;6284883;28;19988;-77
2023/07/05 16:35:51;;;;;;;;;;;;;;;;;;6285969;28;19996;-77
2023/07/05 16:38:54;;;;;;;;;;;;;;;;;;6288898;28;19990;-76
2023/07/05 16:41:55;;;;;;;;;;;;;;;;;;6292432;28;19928;-77
2023/07/05 16:44:57;;;;;;;;;;;;;;;;;;6286818;28;19934;-77
2023/07/05 16:48:00;;;;;;;;;;;;;;;;;;6287544;28;19939;-76
2023/07/05 16:51:01;;;;;;;;;;;;;;;;;;6289286;28;19928;-77
2023/07/05 16:54:03;;;;;;;;;;;;;;;;;;6290994;28;19920;-77
2023/07/05 16:57:05;;;;;;;;;;;;;;;;;;6289209;28;19921;-77
2023/07/05 17:00:08;;;;;;;;;;;;;;;;;;6285848;28;19927;-76
2023/07/05 17:03:11;;;;;;;;;;;;;;;;;;6292604;28;19991;-77
2023/07/05 17:06:13;;;;;;;;;;;;;;;;;;6287463;28;19994;-77
2023/07/05 17:09:15;;;;;;;;;;;;;;;;;;6287439;28;19936;-77
2023/07/05 17:12:17;;;;;;;;;;;;;;;;;;6287806;28;19970;-77
2023/07/05 17:15:19;;;;;;;;;;;;;;;;;;6289038;28;20146;-78
2023/07/05 17:18:22;;;;;;;;;;;;;;;;;;6286981;28;19982;-77
2023/07/05 17:21:24;;;;;;;;;;;;;;;;;;6287026;28;19968;-79
2023/07/05 17:24:25;;;;;;;;;;;;;;;;;;6288332;28;19936;-79
2023/07/05 17:27:27;;;;;;;;;;;;;;;;;;6290455;28;19921;-78
2023/07/05 17:30:32;;;;;;;;;;;;;;;;;;6287563;28;19933;-78
2023/07/05 17:33:57;;;;;;;;;;;;;;;;;;;;;
2023/07/05 17:41:03;;;;;;;10.48;3.47;;;;;;;;;;6228393;28;20305;-83
2023/07/05 17:44:16;;;;;;;7.45;2.88;;;;;;;;;;6241719;28;20112;-81
2023/07/05 17:47:18;;;;;;;7.60;3.00;;;;;;;;;;6267425;28;20114;-82
2023/07/05 17:50:25;;;;;;;6.32;2.45;;;;;;;;;;6243192;28;20056;-82
2023/07/05 18:04:41;;;;;;;4.22;2.58;;;;;;;;;;6080215;28;20055;-77
2023/07/05 18:08:13;;;;;;;3.33;2.22;;;;;;;;;;6160961;28;20043;-84
2023/07/05 18:11:29;;;;;;;3.80;2.50;;;;;;;;;;6164322;28;20338;-80
2023/07/05 18:18:48;;;;;;;4.03;2.22;;;;;;;;;;6136834;28;20126;-80
2023/07/05 18:21:52;;;;;;;4.13;2.10;;;;;;;;;;6098268;29;20056;-80
2023/07/05 18:25:12;;;;;;;7.28;2.75;;;;;;;;;;6120942;28;20059;-87
2023/07/05 18:28:14;;;;;;;8.57;2.88;;;;;;;;;;6113768;28;20324;-80
2023/07/05 18:31:37;;;;;;;5.60;2.42;;;;;;;;;;6125378;29;20067;-84
2023/07/05 18:34:41;;;;;;;16.90;6.88;;;;;;;;;;6116417;28;20279;-81
2023/07/05 18:41:52;;;;;;;5.72;3.03;;;;;;;;;;5992509;29;20050;-87
2023/07/05 18:44:57;;;;;;;8.77;3.63;;;;;;;;;;5998260;29;20054;-87
2023/07/05 18:48:14;;;;;;;;;;;;;;;;;;;;;
2023/07/05 18:51:50;;;;;;;4.90;2.40;;;;;;;;;;6011583;29;20107;-81
2023/07/05 18:54:57;;;;;;;6.68;2.58;;;;;;;;;;6017537;29;20168;-79
2023/07/05 18:58:46;;;;;;;9.93;3.28;;;;;;;;;;6045716;29;20151;-80
2023/07/05 19:12:30;;;;;;;5.35;3.00;;;;;;;;;;6119382;28;20051;-81
2023/07/05 19:15:51;;;;;;;4.45;2.72;;;;;;;;;;6175226;28;20047;-84
2023/07/05 19:19:41;;;;;;;5.43;2.67;;;;;;;;;;6206546;28;20063;-82
2023/07/05 19:23:16;;;;;;;5.45;2.63;;;;;;;;;;6241642;28;20053;-87
2023/07/05 19:27:18;;;;;;;5.03;2.60;;;;;;;;;;6240896;28;20071;-83
2023/07/05 19:30:23;;;;;;;5.75;2.45;;;;;;;;;;6241380;28;20085;-81
2023/07/05 19:33:35;;;;;;;4.82;2.55;;;;;;;;;;6265002;28;20077;-81
2023/07/05 19:36:49;;;;;;;4.67;2.97;;;;;;;;;;6249770;28;21151;-82
2023/07/05 19:47:51;;;;;;;4.57;2.65;;;;;;;;;;6231906;28;20060;-85
2023/07/05 19:51:15;;;;;;;5.75;2.80;;;;;;;;;;6242835;28;20042;-83
2023/07/05 19:54:20;;;;;;;4.63;2.75;;;;;;;;;;6258614;28;20345;-84
2023/07/05 19:58:11;;;;;;;6.15;3.47;;;;;;;;;;6239409;28;20049;-83
2023/07/05 20:01:32;;;;;;;;;;;;;;;;;;;;;
2023/07/05 20:04:43;;;;;;;5.50;3.17;;;;;;;;;;6223123;28;20268;-83
2023/07/05 20:12:03;;;;;;;4.72;3.20;;;;;;;;;;6238826;28;20091;-84
2023/07/05 20:15:23;;;;;;;6.25;3.30;;;;;;;;;;6253275;28;20038;-83
2023/07/05 20:18:43;;;;;;;7.25;3.60;;;;;;;;;;6254103;28;20041;-88
2023/07/05 20:22:12;;;;;;;5.95;3.65;;;;;;;;;;6284132;28;20078;-83
2023/07/05 20:26:25;;;;;;;8.23;4.43;;;;;;;;;;6293840;28;20127;-84
2023/07/05 20:38:10;;;;;;;15.05;3.50;;;;;;;;;;6173221;28;20046;-85
2023/07/05 20:48:13;;;;;;;8.68;3.70;;;;;;;;;;6154646;28;20059;-82
2023/07/05 20:55:24;;;;;;;8.38;3.63;;;;;;;;;;6113473;28;20256;-83
2023/07/05 20:58:35;;;;;;;7.68;3.70;;;;;;;;;;6145481;28;20065;-85
2023/07/05 21:01:48;;;;;;;10.07;3.72;;;;;;;;;;6155395;28;20102;-83
2023/07/05 21:04:51;;;;;;;;;;;;;;;;;;6141354;28;20115;-83
2023/07/05 21:07:59;;;;;;;5.65;3.55;;;;;;;;;;6179006;28;20217;-81
2023/07/05 21:11:28;;;;;;;6.22;3.85;;;;;;;;;;6224622;28;20440;-84
2023/07/05 21:14:42;;;;;;;6.85;3.63;;;;;;;;;;6260014;28;20044;-82
2023/07/05 21:17:51;;;;;;;5.47;3.55;;;;;;;;;;6286949;28;20409;-81
2023/07/05 21:21:07;;;;;;;7.28;3.92;;;;;;;;;;6287581;28;20090;-80
2023/07/05 21:24:09;;;;;;;5.30;3.30;;;;;;;;;;6291223;28;20271;-81
2023/07/05 21:27:11;;;;;;;9.50;3.60;;;;;;;;;;6288154;28;20060;-80
2023/07/05 21:30:14;;;;;;;6.07;3.10;;;;;;;;;;6288343;28;20072;-80
2023/07/05 21:36:44;;;;;;;5.45;3.10;;;;;;;;;;6280664;28;20140;-80
2023/07/05 21:39:56;;;;;;;;;;;;;;;;;;;;;
2023/07/05 21:46:33;;;;;;;5.47;3.45;;;;;;;;;;6261825;28;20090;-81
2023/07/05 21:49:39;;;;;;;6.97;3.70;;;;;;;;;;6259995;28;20049;-81
2023/07/05 21:56:31;;;;;;;8.48;3.88;;;;;;;;;;6278750;28;20061;-81
2023/07/05 21:59:53;;;;;;;6.15;3.60;;;;;;;;;;6286124;28;20293;-80
2023/07/05 22:02:56;;;;;;;5.68;3.80;;;;;;;;;;6290499;28;20112;-80
2023/07/05 22:06:13;;;;;;;;;;;;;;;;;;6286293;28;20056;-81
2023/07/05 22:09:19;;;;;;;5.95;3.65;;;;;;;;;;6284999;28;19954;-81
2023/07/05 22:12:24;;;;;;;5.18;3.53;;;;;;;;;;6286956;28;20056;-81
2023/07/05 22:15:33;;;;;;;20.17;14.65;;;;;;;;;;6275566;28;20052;-81
2023/07/05 22:18:38;;;;;;;24.55;16.48;;;;;;;;;;6289287;28;20040;-81
2023/07/05 22:22:18;;;;;;;16.20;10.30;;;;;;;;;;6285121;28;20063;-81
2023/07/05 22:25:25;;;;;;;7.80;5.57;;;;;;;;;;6235001;28;20375;-81
2023/07/05 22:28:32;;;;;;;6.70;3.97;;;;;;;;;;6230531;28;20344;-81
2023/07/05 22:31:39;;;;;;;6.95;3.90;;;;;;;;;;6217035;28;20069;-81
2023/07/05 22:34:41;;;;;;;8.07;4.05;;;;;;;;;;6228588;28;20244;-81
2023/07/05 22:45:37;;;;;;;7.13;4.50;;;;;;;;;;6206129;28;20364;-80
2023/07/05 22:48:42;;;;;;;10.88;4.22;;;;;;;;;;6228088;28;20045;-81
2023/07/05 22:51:46;;;;;;;7.47;4.38;;;;;;;;;;6231656;28;20098;-80
2023/07/05 22:54:58;;;;;;;5.88;3.92;;;;;;;;;;6235478;28;20052;-82
2023/07/05 22:57:59;;;;;;;9.18;4.43;;;;;;;;;;6287408;28;20095;-81
2023/07/05 23:01:05;;;;;;;8.05;4.32;;;;;;;;;;6284284;28;20053;-81
2023/07/05 23:04:07;;;;;;;6.82;4.13;;;;;;;;;;6297191;28;20148;-81
2023/07/05 23:07:09;;;;;;;8.55;4.95;;;;;;;;;;6292423;28;20590;-81
2023/07/05 23:10:11;;;;;;;9.27;4.47;;;;;;;;;;6290784;28;20344;-81
2023/07/05 23:13:13;;;;;;;8.90;4.10;;;;;;;;;;6292976;28;20383;-81
2023/07/05 23:16:19;;;;;;;7.20;4.63;;;;;;;;;;6293755;28;20348;-81
2023/07/05 23:19:22;;;;;;;10.70;4.90;;;;;;;;;;6289792;28;20110;-80
2023/07/05 23:22:27;;;;;;;10.13;5.35;;;;;;;;;;6291730;28;20060;-81
2023/07/05 23:25:29;;;;;;;9.38;4.80;;;;;;;;;;6291406;28;20045;-81
2023/07/05 23:28:35;;;;;;;9.27;4.88;;;;;;;;;;6292182;28;20056;-81
2023/07/05 23:31:42;;;;;;;9.38;4.70;;;;;;;;;;6293652;28;20367;-81
2023/07/05 23:34:45;;;;;;;8.40;4.25;;;;;;;;;;6297840;28;20267;-81
2023/07/05 23:37:46;;;;;;;7.20;5.32;;;;;;;;;;6293388;28;20073;-81
2023/07/05 23:40:48;;;;;;;12.35;5.25;;;;;;;;;;6296493;28;20075;-81
2023/07/05 23:43:53;;;;;;;7.93;5.30;;;;;;;;;;6296261;28;20055;-81
2023/07/05 23:50:59;;;;;;;10.75;5.88;;;;;;;;;;6295372;28;20068;-82
2023/07/05 23:54:09;;;;;;;10.10;6.22;;;;;;;;;;6295884;28;20052;-81
2023/07/05 23:57:11;;;;;;;7.88;5.68;;;;;;;;;;6294510;28;20083;-82
